Time;durP1;ratioP1;P1;durP2;ratioP2;P2;SDS_P1;SDS_P2;PMS_P1;PMS_P2;Temp;Humidity;BMP_temperature;BMP_pressure;BME280_temperature;BME280_humidity;BME280_pressure;Samples;Min_cycle;Max_cycle;Signal;HPM_P1;HPM_P2
2022/06/08 00:01:52;;;;;;;4.47;3.00;;;16.70;99.90;;;;;;5012671;28;20172;-56
2022/06/08 00:04:22;;;;;;;4.28;3.15;;;16.70;99.90;;;;;;5013028;28;20178;-54
2022/06/08 00:06:48;;;;;;;4.05;3.10;;;16.70;99.90;;;;;;5013039;28;20204;-54
2022/06/08 00:09:14;;;;;;;6.18;2.55;;;16.70;99.90;;;;;;5012764;28;20160;-54
2022/06/08 00:11:40;;;;;;;8.98;3.10;;;16.70;99.90;;;;;;4994460;28;20180;-54
2022/06/08 00:14:05;;;;;;;4.30;2.90;;;16.70;99.90;;;;;;5012660;28;20242;-54
2022/06/08 00:16:31;;;;;;;7.78;2.88;;;16.70;99.90;;;;;;5013061;28;20602;-55
2022/06/08 00:18:57;;;;;;;5.20;2.55;;;16.70;99.90;;;;;;5012604;28;20183;-55
2022/06/08 00:21:22;;;;;;;3.45;2.97;;;16.70;99.90;;;;;;5012615;28;20168;-55
2022/06/08 00:23:48;;;;;;;2.60;2.35;;;16.70;99.90;;;;;;5012447;28;20183;-56
2022/06/08 00:26:14;;;;;;;8.73;2.85;;;16.70;99.90;;;;;;5012519;28;20167;-55
2022/06/08 00:28:40;;;;;;;4.15;2.88;;;16.70;99.90;;;;;;5012475;28;20168;-54
2022/06/08 00:31:06;;;;;;;4.30;2.50;;;16.70;99.90;;;;;;5012438;28;20175;-54
2022/06/08 00:33:31;;;;;;;9.50;2.88;;;16.80;99.90;;;;;;5012897;28;20688;-54
2022/06/08 00:35:57;;;;;;;7.40;2.88;;;16.70;99.90;;;;;;5012314;28;20501;-54
2022/06/08 00:38:23;;;;;;;9.10;3.15;;;16.70;99.90;;;;;;5012328;28;20167;-55
2022/06/08 00:41:01;;;;;;;5.60;3.03;;;16.70;99.90;;;;;;5012377;28;20171;-56
2022/06/08 00:43:27;;;;;;;5.03;3.60;;;16.70;99.90;;;;;;5012248;28;20174;-56
2022/06/08 00:45:53;;;;;;;5.50;3.25;;;16.60;99.90;;;;;;5012309;28;20547;-56
2022/06/08 00:48:19;;;;;;;10.15;3.40;;;16.70;99.90;;;;;;5011998;28;20215;-55
2022/06/08 00:50:49;;;;;;;5.55;3.05;;;16.70;99.90;;;;;;5012156;28;20251;-55
2022/06/08 00:53:19;;;;;;;4.85;2.63;;;16.70;99.90;;;;;;5012124;28;20703;-55
2022/06/08 00:55:45;;;;;;;8.00;3.05;;;16.70;99.90;;;;;;5012211;28;20168;-55
2022/06/08 00:58:16;;;;;;;9.40;3.83;;;16.70;99.90;;;;;;5012074;28;20168;-55
2022/06/08 01:00:42;;;;;;;7.65;3.92;;;16.70;99.90;;;;;;5012202;28;20164;-55
2022/06/08 01:03:11;;;;;;;8.68;3.70;;;16.80;99.90;;;;;;5012046;28;20172;-54
2022/06/08 01:05:39;;;;;;;5.50;3.17;;;16.80;99.90;;;;;;5012140;28;20254;-54
2022/06/08 01:08:30;;;;;;;11.25;3.90;;;16.80;99.90;;;;;;5012330;28;20176;-54
2022/06/08 01:11:05;;;;;;;7.88;3.33;;;16.80;99.90;;;;;;4998227;28;20195;-55
2022/06/08 01:13:33;;;;;;;8.02;3.53;;;16.90;99.90;;;;;;5012352;28;20668;-56
2022/06/08 01:16:08;;;;;;;4.93;3.15;;;16.90;99.90;;;;;;5012334;28;20168;-55
2022/06/08 01:18:35;;;;;;;8.88;3.85;;;16.80;99.90;;;;;;5011892;28;20163;-55
2022/06/08 01:21:21;;;;;;;7.03;3.35;;;16.70;99.90;;;;;;5012281;28;20641;-54
2022/06/08 01:23:48;;;;;;;4.25;3.15;;;16.70;99.90;;;;;;4981301;28;20274;-56
2022/06/08 01:26:48;;;;;;;4.88;3.55;;;16.80;99.90;;;;;;5015764;28;20165;-54
2022/06/08 01:29:17;;;;;;;10.63;3.60;;;16.80;99.90;;;;;;4999031;28;20263;-55
2022/06/08 01:32:11;;;;;;;7.70;3.58;;;16.80;99.90;;;;;;5015720;28;20171;-55
2022/06/08 01:35:08;;;;;;;4.78;3.58;;;16.80;99.90;;;;;;5015533;28;20563;-56
2022/06/08 01:38:02;;;;;;;5.10;2.88;;;16.80;99.90;;;;;;5015559;28;20160;-54
2022/06/08 01:40:54;;;;;;;5.38;3.33;;;16.70;99.90;;;;;;5015484;28;20195;-56
2022/06/08 01:43:28;;;;;;;8.82;4.10;;;16.70;99.90;;;;;;5015447;28;20213;-56
2022/06/08 01:46:17;;;;;;;8.98;3.80;;;16.50;99.90;;;;;;5015362;28;20166;-55
2022/06/08 01:49:04;;;;;;;8.77;3.90;;;16.50;99.90;;;;;;5015246;28;20223;-55
2022/06/08 01:51:39;;;;;;;7.97;4.25;;;16.50;99.90;;;;;;5015624;28;20164;-55
2022/06/08 01:54:28;;;;;;;12.20;3.60;;;16.50;99.90;;;;;;5015389;28;20302;-55
2022/06/08 01:57:15;;;;;;;8.15;3.60;;;16.40;99.90;;;;;;5015175;28;20604;-55
2022/06/08 02:00:06;;;;;;;5.72;3.45;;;16.30;99.90;;;;;;5015407;28;20234;-55
2022/06/08 02:02:45;;;;;;;10.98;3.80;;;16.30;99.90;;;;;;5015542;28;20168;-55
2022/06/08 02:05:43;;;;;;;4.45;3.60;;;16.30;99.90;;;;;;5014978;28;20625;-55
2022/06/08 02:08:20;;;;;;;10.73;6.57;;;16.20;99.90;;;;;;5014780;28;20645;-55
2022/06/08 02:10:57;;;;;;;5.90;3.80;;;16.10;99.90;;;;;;5014906;28;20241;-55
2022/06/08 02:13:37;;;;;;;2.60;2.40;;;16.10;99.90;;;;;;5014765;28;20219;-55
2022/06/08 02:16:27;;;;;;;6.95;3.33;;;16.00;99.90;;;;;;5014722;28;20168;-55
2022/06/08 02:19:01;;;;;;;9.75;3.80;;;16.00;99.90;;;;;;5014823;28;20168;-56
2022/06/08 02:21:36;;;;;;;7.97;3.95;;;16.00;99.90;;;;;;5014680;28;20164;-56
2022/06/08 02:24:11;;;;;;;3.00;2.70;;;16.00;99.90;;;;;;5014983;28;20531;-56
2022/06/08 02:26:43;;;;;;;5.47;2.60;;;16.10;99.90;;;;;;5014684;28;20186;-55
2022/06/08 02:29:19;;;;;;;4.10;2.38;;;16.10;99.90;;;;;;4997059;28;20659;-55
2022/06/08 02:32:02;;;;;;;4.00;2.80;;;16.00;99.90;;;;;;5014758;28;20545;-56
2022/06/08 02:34:34;;;;;;;6.60;3.25;;;15.90;99.90;;;;;;5014043;28;20208;-55
2022/06/08 02:37:22;;;;;;;4.10;2.78;;;15.90;99.90;;;;;;5014688;28;20203;-56
2022/06/08 02:39:54;;;;;;;4.80;2.90;;;16.00;99.90;;;;;;4996868;28;20198;-56
2022/06/08 02:42:33;;;;;;;8.40;4.15;;;16.00;99.90;;;;;;5014461;28;20168;-56
2022/06/08 02:45:07;;;;;;;6.55;2.75;;;16.00;99.90;;;;;;5014570;28;20310;-56
2022/06/08 02:47:36;;;;;;;7.22;2.75;;;16.00;99.90;;;;;;5014367;28;20228;-54
2022/06/08 02:50:09;;;;;;;7.28;2.95;;;16.00;99.90;;;;;;5014576;28;20164;-54
2022/06/08 02:52:36;;;;;;;5.57;2.55;;;15.80;99.90;;;;;;5014005;28;20172;-55
2022/06/08 02:55:09;;;;;;;4.60;2.63;;;15.60;99.90;;;;;;5014433;28;20175;-54
2022/06/08 02:58:23;;;;;;;9.00;2.60;;;15.70;99.90;;;;;;5014022;28;20259;-55
2022/06/08 03:00:55;;;;;;;7.75;2.95;;;15.70;99.90;;;;;;4915516;29;20586;-54
2022/06/08 03:03:26;;;;;;;5.32;2.30;;;15.70;99.90;;;;;;4915516;29;20167;-54
2022/06/08 03:06:06;;;;;;;21.40;9.38;;;15.70;99.90;;;;;;4975936;28;20190;-55
2022/06/08 03:08:39;;;;;;;6.68;3.22;;;15.70;99.90;;;;;;5014158;28;20198;-54
2022/06/08 03:11:07;;;;;;;7.63;3.25;;;15.70;99.90;;;;;;5013719;28;20168;-55
2022/06/08 03:13:43;;;;;;;8.30;3.78;;;15.70;99.90;;;;;;5013724;28;20211;-55
2022/06/08 03:16:23;;;;;;;4.38;2.70;;;15.80;99.90;;;;;;5013665;28;20168;-54
2022/06/08 03:18:48;;;;;;;5.55;2.22;;;15.70;99.90;;;;;;5013708;28;20179;-54
2022/06/08 03:21:14;;;;;;;3.58;2.20;;;15.80;99.90;;;;;;5013609;28;20168;-54
2022/06/08 03:23:39;;;;;;;3.88;2.30;;;15.90;99.90;;;;;;5013548;28;20251;-54
2022/06/08 03:26:05;;;;;;;4.05;2.13;;;15.80;99.90;;;;;;5013565;28;20170;-54
2022/06/08 03:28:33;;;;;;;4.93;2.50;;;15.80;99.90;;;;;;5013976;28;20512;-56
2022/06/08 03:30:59;;;;;;;4.38;2.95;;;15.90;99.90;;;;;;5014052;28;20183;-55
2022/06/08 03:33:24;;;;;;;4.63;2.20;;;15.90;99.90;;;;;;5013370;28;20562;-55
2022/06/08 03:35:50;;;;;;;5.38;3.38;;;16.00;99.90;;;;;;5013487;28;20180;-56
2022/06/08 03:38:16;;;;;;;5.35;2.60;;;16.00;99.90;;;;;;5013553;28;20207;-56
2022/06/08 03:40:41;;;;;;;3.17;2.20;;;16.00;99.90;;;;;;5013376;28;20238;-54
2022/06/08 03:43:07;;;;;;;4.78;2.30;;;16.00;99.90;;;;;;5013258;28;20178;-55
2022/06/08 03:45:40;;;;;;;4.68;2.28;;;16.00;99.90;;;;;;5012306;28;20564;-55
2022/06/08 03:48:07;;;;;;;7.82;3.28;;;16.00;99.90;;;;;;5013061;28;20334;-54
2022/06/08 03:50:34;;;;;;;12.95;6.05;;;16.00;99.90;;;;;;5013103;28;20164;-56
2022/06/08 03:53:04;;;;;;;21.13;10.00;;;16.10;99.90;;;;;;5013473;28;20281;-55
2022/06/08 03:55:32;;;;;;;8.88;5.18;;;16.10;99.90;;;;;;5013381;28;20212;-55
2022/06/08 03:58:00;;;;;;;5.53;3.15;;;16.10;99.90;;;;;;5013571;28;20179;-55
2022/06/08 04:00:28;;;;;;;6.10;2.65;;;16.20;99.90;;;;;;5012866;28;20657;-54
2022/06/08 04:02:54;;;;;;;5.75;2.38;;;16.10;99.90;;;;;;5012856;28;20172;-54
2022/06/08 04:05:20;;;;;;;8.75;3.40;;;16.10;99.90;;;;;;5012889;28;20171;-54
2022/06/08 04:07:46;;;;;;;4.32;2.38;;;16.00;99.90;;;;;;5013089;28;20172;-56
2022/06/08 04:10:12;;;;;;;8.73;3.30;;;16.00;99.90;;;;;;5012874;28;20179;-56
2022/06/08 04:12:38;;;;;;;10.63;5.47;;;16.10;99.90;;;;;;5012632;28;20263;-55
2022/06/08 04:15:05;;;;;;;6.32;2.78;;;16.10;99.90;;;;;;5012621;28;20259;-55
2022/06/08 04:17:31;;;;;;;4.00;2.38;;;16.10;99.90;;;;;;5012869;28;20195;-55
2022/06/08 04:19:57;;;;;;;5.57;2.47;;;16.20;99.90;;;;;;5012567;28;20183;-56
2022/06/08 04:22:25;;;;;;;4.55;3.03;;;16.20;99.90;;;;;;5012545;28;20572;-56
2022/06/08 04:24:51;;;;;;;5.97;3.00;;;16.20;99.90;;;;;;5012410;28;20180;-56
2022/06/08 04:27:16;;;;;;;4.22;2.30;;;16.20;99.90;;;;;;5012492;28;20172;-55
2022/06/08 04:29:42;;;;;;;6.43;2.70;;;16.30;99.90;;;;;;5012392;28;20172;-56
2022/06/08 04:32:09;;;;;;;8.32;3.40;;;16.30;99.90;;;;;;5012441;28;20195;-56
2022/06/08 04:34:37;;;;;;;13.55;9.32;;;16.40;99.90;;;;;;5012203;28;20207;-56
2022/06/08 04:37:03;;;;;;;16.02;9.77;;;16.40;99.90;;;;;;5012401;28;20583;-55
2022/06/08 04:39:28;;;;;;;10.20;6.18;;;16.30;99.90;;;;;;5012668;28;20198;-55
2022/06/08 04:41:55;;;;;;;3.80;2.25;;;16.40;99.90;;;;;;5012185;28;20214;-55
2022/06/08 04:44:21;;;;;;;11.70;6.38;;;16.50;99.90;;;;;;5012278;28;20571;-54
2022/06/08 04:46:46;;;;;;;13.40;7.45;;;16.60;99.90;;;;;;5012161;28;20164;-55
2022/06/08 04:49:12;;;;;;;5.65;2.80;;;16.60;99.90;;;;;;5012201;28;20179;-56
2022/06/08 04:51:37;;;;;;;4.10;2.63;;;16.70;99.90;;;;;;5012449;28;20573;-56
2022/06/08 04:54:03;;;;;;;9.20;2.75;;;16.70;99.90;;;;;;5012362;28;20207;-56
2022/06/08 04:56:29;;;;;;;7.07;2.78;;;16.90;99.90;;;;;;5013704;28;20172;-57
2022/06/08 04:58:55;;;;;;;5.55;2.55;;;17.10;99.90;;;;;;5018588;28;20176;-57
2022/06/08 05:01:22;;;;;;;6.55;2.03;;;17.30;99.90;;;;;;5018821;28;20581;-57
2022/06/08 05:03:48;;;;;;;3.38;1.95;;;17.30;99.90;;;;;;5018772;28;20179;-57
2022/06/08 05:06:13;;;;;;;5.47;2.10;;;17.30;99.90;;;;;;5018626;28;20222;-55
2022/06/08 05:08:40;;;;;;;6.47;2.63;;;17.50;99.90;;;;;;5018676;28;20176;-56
2022/06/08 05:11:07;;;;;;;7.32;2.50;;;17.50;99.90;;;;;;5018611;28;20582;-56
2022/06/08 05:13:36;;;;;;;9.35;2.35;;;17.80;99.90;;;;;;5018471;28;20248;-56
2022/06/08 05:16:02;;;;;;;5.90;2.90;;;17.90;99.90;;;;;;5018732;28;20164;-57
2022/06/08 05:18:28;;;;;;;7.35;2.28;;;18.20;99.90;;;;;;5018784;28;20172;-57
2022/06/08 05:20:54;;;;;;;4.35;2.03;;;18.30;99.90;;;;;;5018377;28;20168;-57
2022/06/08 05:23:23;;;;;;;3.10;1.90;;;18.00;99.90;;;;;;5018719;28;20176;-56
2022/06/08 05:25:49;;;;;;;3.30;1.63;;;18.00;99.90;;;;;;5018249;28;20347;-57
2022/06/08 05:28:15;;;;;;;2.28;1.52;;;18.10;99.90;;;;;;5018344;28;20691;-57
2022/06/08 05:30:43;;;;;;;3.22;1.67;;;18.10;99.90;;;;;;5018487;28;20164;-56
2022/06/08 05:33:10;;;;;;;4.95;1.63;;;18.10;99.90;;;;;;5018477;28;20200;-57
2022/06/08 05:35:37;;;;;;;8.20;1.83;;;18.10;99.90;;;;;;5018349;28;20190;-57
2022/06/08 05:38:03;;;;;;;2.45;1.63;;;18.20;99.90;;;;;;5018330;28;20636;-57
2022/06/08 05:40:32;;;;;;;5.13;1.92;;;18.20;99.90;;;;;;5018613;28;20175;-56
2022/06/08 05:42:59;;;;;;;3.33;1.80;;;18.40;99.90;;;;;;5018768;28;20176;-57
2022/06/08 05:45:26;;;;;;;3.30;1.65;;;18.30;99.90;;;;;;5018495;28;20220;-57
2022/06/08 05:47:52;;;;;;;2.75;1.48;;;18.40;99.90;;;;;;5017982;28;20561;-57
2022/06/08 05:50:19;;;;;;;3.38;1.77;;;18.40;99.90;;;;;;5018386;28;20202;-56
2022/06/08 05:52:45;;;;;;;4.43;1.67;;;18.40;99.90;;;;;;5018088;28;20235;-56
2022/06/08 05:55:12;;;;;;;2.33;1.52;;;18.40;99.90;;;;;;5018019;28;20175;-57
2022/06/08 05:57:38;;;;;;;3.72;1.73;;;18.40;99.90;;;;;;5017959;28;20262;-55
2022/06/08 06:00:07;;;;;;;3.90;1.75;;;18.30;99.90;;;;;;5017952;28;20305;-56
2022/06/08 06:02:32;;;;;;;3.60;1.50;;;18.30;99.90;;;;;;5017917;28;20163;-57
2022/06/08 06:04:58;;;;;;;2.35;1.70;;;18.30;99.90;;;;;;5018015;28;20671;-56
2022/06/08 06:07:25;;;;;;;2.45;1.73;;;18.30;99.90;;;;;;5017290;28;20164;-56
2022/06/08 06:09:51;;;;;;;3.17;1.92;;;18.30;99.90;;;;;;5014632;28;20183;-56
2022/06/08 06:12:17;;;;;;;4.15;2.00;;;18.30;99.90;;;;;;5014814;28;20572;-56
2022/06/08 06:14:42;;;;;;;2.83;2.00;;;18.30;99.90;;;;;;5014733;28;20212;-57
2022/06/08 06:17:08;;;;;;;5.50;2.33;;;18.30;99.90;;;;;;5015106;28;20652;-57
2022/06/08 06:19:34;;;;;;;4.95;2.50;;;18.20;99.90;;;;;;5014746;28;20186;-56
2022/06/08 06:22:01;;;;;;;5.47;2.38;;;18.30;99.90;;;;;;5015024;28;20203;-57
2022/06/08 06:24:27;;;;;;;6.97;2.25;;;18.20;99.90;;;;;;5015278;28;20247;-56
2022/06/08 06:26:53;;;;;;;8.45;3.05;;;18.30;99.90;;;;;;5014576;28;20167;-56
2022/06/08 06:29:18;;;;;;;5.32;2.20;;;18.40;99.90;;;;;;5014561;28;20172;-56
2022/06/08 06:31:57;;;;;;;7.72;2.47;;;18.50;99.90;;;;;;5014650;28;20247;-56
2022/06/08 06:34:25;;;;;;;5.93;2.25;;;18.50;99.90;;;;;;5014602;28;20610;-56
2022/06/08 06:36:53;;;;;;;4.72;2.33;;;18.60;99.90;;;;;;5014512;28;20226;-56
2022/06/08 06:39:22;;;;;;;7.43;2.70;;;18.70;99.90;;;;;;5013824;28;20225;-56
2022/06/08 06:41:49;;;;;;;4.03;2.10;;;18.60;99.90;;;;;;5013923;28;20164;-56
2022/06/08 06:44:15;;;;;;;5.13;2.70;;;18.80;99.90;;;;;;5014310;28;20164;-57
2022/06/08 06:46:41;;;;;;;4.88;2.80;;;18.90;99.90;;;;;;5014000;28;20179;-57
2022/06/08 06:49:07;;;;;;;4.28;2.50;;;18.90;99.90;;;;;;5014323;28;20180;-56
2022/06/08 06:51:34;;;;;;;6.15;2.50;;;19.20;99.90;;;;;;5014330;28;20175;-56
2022/06/08 06:54:01;;;;;;;4.88;2.33;;;19.20;99.90;;;;;;5014557;28;20208;-56
2022/06/08 06:56:26;;;;;;;5.68;3.00;;;19.30;99.90;;;;;;5014681;28;20242;-56
2022/06/08 06:58:53;;;;;;;6.50;2.47;;;19.40;99.90;;;;;;5013986;28;20633;-56
2022/06/08 07:01:19;;;;;;;7.00;2.97;;;19.30;99.90;;;;;;5013986;28;20635;-56
2022/06/08 07:03:45;;;;;;;5.45;2.67;;;19.40;99.90;;;;;;5013869;28;20172;-56
2022/06/08 07:06:11;;;;;;;3.45;1.58;;;19.60;99.90;;;;;;5013838;28;20575;-56
2022/06/08 07:08:37;;;;;;;1.85;1.45;;;19.20;99.90;;;;;;5014006;28;20183;-56
2022/06/08 07:13:47;;;;;;;3.90;1.58;;;19.20;99.90;;;;;;5013883;28;20209;-56
2022/06/08 07:16:13;;;;;;;2.38;1.70;;;19.20;99.90;;;;;;5013945;28;20251;-56
2022/06/08 07:18:39;;;;;;;5.43;1.80;;;19.20;99.90;;;;;;5013794;28;20180;-56
2022/06/08 07:21:04;;;;;;;1.92;1.50;;;19.20;99.90;;;;;;5013683;28;20172;-56
2022/06/08 07:23:30;;;;;;;2.30;1.58;;;19.20;99.90;;;;;;5013688;28;20164;-56
2022/06/08 07:25:56;;;;;;;3.83;1.80;;;19.30;99.90;;;;;;5013875;28;20225;-56
2022/06/08 07:28:22;;;;;;;2.55;1.40;;;19.20;99.90;;;;;;5013769;28;20209;-56
2022/06/08 07:30:47;;;;;;;2.22;1.45;;;19.20;99.90;;;;;;5013706;28;20169;-56
2022/06/08 07:33:13;;;;;;;2.60;1.40;;;19.10;99.90;;;;;;5013287;28;20206;-56
2022/06/08 07:35:39;;;;;;;1.40;1.30;;;19.20;99.90;;;;;;5013694;28;20282;-55
2022/06/08 07:38:05;;;;;;;4.60;1.98;;;19.20;99.90;;;;;;5013375;28;20175;-56
2022/06/08 07:40:31;;;;;;;2.88;1.85;;;19.10;99.90;;;;;;5012857;28;20164;-56
2022/06/08 07:42:57;;;;;;;3.40;1.70;;;19.10;99.90;;;;;;5013519;28;20581;-57
2022/06/08 07:45:22;;;;;;;4.50;1.48;;;19.20;99.90;;;;;;5011464;28;20222;-57
2022/06/08 07:50:32;;;;;;;2.15;1.60;;;19.20;99.90;;;;;;5013219;28;20198;-57
2022/06/08 07:52:57;;;;;;;4.97;2.17;;;19.20;99.90;;;;;;5013289;28;20704;-57
2022/06/08 07:55:23;;;;;;;2.58;1.60;;;19.30;99.90;;;;;;5013031;28;20176;-56
2022/06/08 07:57:50;;;;;;;3.25;1.60;;;19.30;99.90;;;;;;5012969;28;20557;-53
2022/06/08 08:00:16;;;;;;;2.88;1.52;;;19.80;99.90;;;;;;5013128;28;20202;-54
2022/06/08 08:02:42;;;;;;;5.32;2.35;;;19.90;99.90;;;;;;5012837;28;20231;-56
2022/06/08 08:05:13;;;;;;;2.88;1.67;;;20.10;99.90;;;;;;5012724;28;20172;-55
2022/06/08 08:07:39;;;;;;;3.42;1.55;;;20.50;99.90;;;;;;5012500;28;20187;-55
2022/06/08 08:10:09;;;;;;;4.80;1.77;;;20.60;99.90;;;;;;5012502;28;20160;-55
2022/06/08 08:12:36;;;;;;;2.35;1.60;;;20.90;99.90;;;;;;5012548;28;20175;-55
2022/06/08 08:15:02;;;;;;;4.28;1.63;;;20.90;99.90;;;;;;5012556;28;20183;-55
2022/06/08 08:17:28;;;;;;;5.07;1.83;;;20.80;99.90;;;;;;5013172;28;20160;-55
2022/06/08 08:19:54;;;;;;;1.50;1.40;;;21.00;99.90;;;;;;5012892;28;20172;-55
2022/06/08 08:22:21;;;;;;;1.90;1.52;;;20.70;99.90;;;;;;5012452;28;20633;-55
2022/06/08 08:24:46;;;;;;;2.67;1.60;;;20.90;99.90;;;;;;5012539;28;20634;-55
2022/06/08 08:27:12;;;;;;;4.40;1.98;;;20.80;99.90;;;;;;5012741;28;20250;-55
2022/06/08 08:29:38;;;;;;;2.72;1.42;;;21.10;99.90;;;;;;4994702;28;20191;-55
2022/06/08 08:32:05;;;;;;;7.25;2.78;;;21.20;99.90;;;;;;5011870;28;20529;-55
2022/06/08 08:34:30;;;;;;;2.25;1.45;;;21.60;99.90;;;;;;5012297;28;20297;-55
2022/06/08 08:36:56;;;;;;;9.43;4.45;;;21.80;99.90;;;;;;5012717;28;20653;-55
2022/06/08 08:39:23;;;;;;;6.97;2.20;;;21.60;99.90;;;;;;5012258;28;20175;-55
2022/06/08 08:44:42;;;;;;;2.65;1.70;;;21.80;99.90;;;;;;5012636;28;20179;-55
2022/06/08 08:47:30;;;;;;;4.13;1.75;;;21.60;99.90;;;;;;5012042;28;20745;-55
2022/06/08 08:50:00;;;;;;;7.75;2.10;;;21.70;99.90;;;;;;5012442;28;20160;-55
2022/06/08 08:52:38;;;;;;;6.22;3.45;;;21.70;99.90;;;;;;5012720;28;20251;-55
2022/06/08 08:55:45;;;;;;;2.75;1.95;;;21.90;99.90;;;;;;5012315;28;20188;-55
2022/06/08 08:58:21;;;;;;;6.47;2.22;;;22.10;99.90;;;;;;5012003;28;20164;-55
2022/06/08 09:00:55;;;;;;;3.15;2.25;;;21.90;99.90;;;;;;5012402;28;20179;-55
2022/06/08 09:03:33;;;;;;;5.22;2.90;;;21.80;99.90;;;;;;5012324;28;20164;-56
2022/06/08 09:06:14;;;;;;;7.40;2.15;;;21.90;99.90;;;;;;5012032;28;20167;-55
2022/06/08 09:08:43;;;;;;;5.70;2.85;;;22.20;99.90;;;;;;4994263;28;20587;-54
2022/06/08 09:11:19;;;;;;;4.28;1.98;;;22.40;99.90;;;;;;5012184;28;20580;-55
2022/06/08 09:14:01;;;;;;;4.18;1.90;;;22.50;99.90;;;;;;5011850;28;20218;-55
2022/06/08 09:16:40;;;;;;;3.88;1.92;;;22.50;99.90;;;;;;5012308;28;20156;-55
2022/06/08 09:19:21;;;;;;;3.28;1.48;;;22.60;99.90;;;;;;5011330;28;20225;-55
2022/06/08 09:21:59;;;;;;;4.55;2.90;;;22.70;99.90;;;;;;5011796;28;20168;-56
2022/06/08 09:24:49;;;;;;;3.17;2.30;;;23.20;99.90;;;;;;5012076;28;20251;-56
2022/06/08 09:27:49;;;;;;;3.47;1.85;;;23.20;99.90;;;;;;5012008;28;20535;-57
2022/06/08 09:30:18;;;;;;;4.72;2.63;;;23.10;99.90;;;;;;4943098;28;20182;-56
2022/06/08 09:32:51;;;;;;;6.38;2.50;;;23.30;99.90;;;;;;5011651;28;20255;-56
2022/06/08 09:35:30;;;;;;;2.70;1.80;;;23.30;99.90;;;;;;5011843;28;20167;-56
2022/06/08 09:38:12;;;;;;;5.28;1.60;;;23.10;99.90;;;;;;5012326;28;20175;-57
2022/06/08 09:41:11;;;;;;;6.78;1.90;;;23.00;99.90;;;;;;5011721;28;20313;-56
2022/06/08 09:43:58;;;;;;;4.72;2.13;;;22.80;99.90;;;;;;5011749;28;20172;-57
2022/06/08 09:53:15;;;;;;;5.03;1.73;;;21.90;99.90;;;;;;4935935;29;20238;-57
2022/06/08 09:55:47;;;;;;;10.10;2.33;;;21.60;99.90;;;;;;4961485;28;20278;-56
2022/06/08 09:58:39;;;;;;;11.82;2.42;;;21.40;99.90;;;;;;5015176;28;20567;-56
2022/06/08 10:01:18;;;;;;;11.60;2.35;;;21.30;99.90;;;;;;5015139;28;20196;-56
2022/06/08 10:04:10;;;;;;;6.25;2.42;;;21.10;99.90;;;;;;5015147;28;20175;-56
2022/06/08 10:06:57;;;;;;;15.00;9.52;;;21.00;99.90;;;;;;5015177;28;20257;-55
2022/06/08 10:09:38;;;;;;;5.80;2.30;;;20.90;99.90;;;;;;5014976;28;20203;-55
2022/06/08 10:12:22;;;;;;;7.43;2.42;;;20.70;99.90;;;;;;5014852;28;20530;-55
2022/06/08 10:15:02;;;;;;;6.28;2.20;;;20.60;99.90;;;;;;5014793;28;20203;-55
2022/06/08 10:17:44;;;;;;;9.45;2.45;;;20.60;99.90;;;;;;5015237;28;20160;-55
2022/06/08 10:20:36;;;;;;;9.27;1.90;;;20.60;99.90;;;;;;5014730;28;20712;-56
2022/06/08 10:23:14;;;;;;;6.78;2.78;;;20.50;99.90;;;;;;5014806;28;20170;-56
2022/06/08 10:25:52;;;;;;;7.18;2.15;;;20.40;99.90;;;;;;5014935;28;20251;-56
2022/06/08 10:28:41;;;;;;;9.93;2.42;;;20.20;99.90;;;;;;5014578;28;20210;-56
2022/06/08 10:31:51;;;;;;;11.35;2.47;;;20.20;99.90;;;;;;5014574;28;20247;-55
2022/06/08 10:34:21;;;;;;;13.05;3.42;;;20.20;99.90;;;;;;4937977;28;20302;-56
2022/06/08 10:36:50;;;;;;;11.48;4.10;;;20.10;99.90;;;;;;5014535;28;20625;-55
2022/06/08 10:39:16;;;;;;;10.48;3.10;;;19.70;99.90;;;;;;5014405;28;20460;-55
2022/06/08 10:44:51;;;;;;;10.55;2.92;;;19.80;99.90;;;;;;5014580;28;21127;-56
2022/06/08 10:47:30;;;;;;;12.15;3.17;;;19.80;99.90;;;;;;5014122;28;20688;-56
2022/06/08 10:50:16;;;;;;;8.68;3.42;;;19.80;99.90;;;;;;5014869;28;20199;-56
2022/06/08 10:52:46;;;;;;;8.52;2.13;;;19.60;99.90;;;;;;5014454;28;20222;-56
2022/06/08 10:55:15;;;;;;;6.20;2.10;;;19.10;99.90;;;;;;5013868;28;20238;-56
2022/06/08 10:57:50;;;;;;;4.45;2.08;;;18.70;99.90;;;;;;5014108;28;20164;-56
2022/06/08 11:00:22;;;;;;;8.05;1.85;;;18.50;99.90;;;;;;5014068;28;20171;-55
2022/06/08 11:03:02;;;;;;;4.57;1.55;;;18.50;99.90;;;;;;5014270;28;20563;-56
2022/06/08 11:05:33;;;;;;;7.78;2.03;;;18.40;99.90;;;;;;5014499;28;20184;-56
2022/06/08 11:07:59;;;;;;;4.85;2.13;;;18.30;99.90;;;;;;5014157;28;20226;-56
2022/06/08 11:10:50;;;;;;;3.88;1.70;;;18.30;99.90;;;;;;5014119;28;20168;-56
2022/06/08 11:13:25;;;;;;;3.58;1.42;;;18.20;99.90;;;;;;4996166;28;20567;-56
2022/06/08 11:15:59;;;;;;;4.15;1.83;;;18.20;99.90;;;;;;5013649;28;20174;-56
2022/06/08 11:18:31;;;;;;;6.22;1.90;;;18.30;99.90;;;;;;5014258;28;20164;-56
2022/06/08 11:21:34;;;;;;;3.95;1.65;;;18.40;99.90;;;;;;5013983;28;20645;-56
2022/06/08 11:24:38;;;;;;;4.70;1.85;;;18.40;99.90;;;;;;5013560;28;20234;-56
2022/06/08 11:27:10;;;;;;;8.15;2.20;;;18.50;99.90;;;;;;5013520;28;20207;-57
2022/06/08 11:29:41;;;;;;;5.20;2.13;;;18.40;99.90;;;;;;5013779;28;20164;-56
2022/06/08 11:32:31;;;;;;;7.22;1.95;;;18.50;99.90;;;;;;5013467;28;20165;-56
2022/06/08 11:35:18;;;;;;;6.43;2.00;;;18.60;99.90;;;;;;5013649;28;20203;-56
2022/06/08 11:38:31;;;;;;;4.13;2.08;;;18.60;99.90;;;;;;5013422;28;20641;-56
2022/06/08 11:41:22;;;;;;;4.88;1.90;;;18.60;99.90;;;;;;5013536;28;20172;-56
2022/06/08 11:43:49;;;;;;;5.72;1.80;;;18.50;99.90;;;;;;4976020;28;20535;-56
2022/06/08 11:46:32;;;;;;;4.50;1.92;;;18.60;99.90;;;;;;5013223;28;20160;-57
2022/06/08 11:48:58;;;;;;;5.18;1.70;;;18.60;99.90;;;;;;5013163;28;20715;-56
2022/06/08 11:51:34;;;;;;;8.57;2.40;;;18.60;99.90;;;;;;5013386;28;20263;-56
2022/06/08 11:54:16;;;;;;;7.95;2.78;;;18.60;99.90;;;;;;5013276;28;20207;-56
2022/06/08 11:56:55;;;;;;;7.05;2.15;;;18.80;99.90;;;;;;5012942;28;20163;-56
2022/06/08 11:59:21;;;;;;;5.78;2.58;;;19.10;99.90;;;;;;5012990;28;20669;-56
2022/06/08 12:01:54;;;;;;;6.20;2.70;;;19.10;99.90;;;;;;5012915;28;20554;-56
2022/06/08 12:04:27;;;;;;;12.88;4.60;;;19.10;99.90;;;;;;5013107;28;20195;-56
2022/06/08 12:06:56;;;;;;;5.60;2.42;;;19.00;99.90;;;;;;5012123;28;20167;-56
2022/06/08 12:09:27;;;;;;;7.10;3.08;;;19.00;99.90;;;;;;4995158;28;20168;-56
2022/06/08 12:12:04;;;;;;;8.02;2.97;;;19.10;99.90;;;;;;5012738;28;20160;-56
2022/06/08 12:14:37;;;;;;;8.05;3.10;;;19.10;99.90;;;;;;5012573;28;20220;-56
2022/06/08 12:17:12;;;;;;;7.57;2.70;;;19.00;99.90;;;;;;5012871;28;20565;-56
2022/06/08 12:19:45;;;;;;;6.57;2.60;;;18.90;99.90;;;;;;5012678;28;20250;-56
2022/06/08 12:22:24;;;;;;;9.07;3.65;;;18.70;99.90;;;;;;5012481;28;20583;-56
2022/06/08 12:25:09;;;;;;;11.25;3.28;;;18.70;99.90;;;;;;5012479;28;20164;-56
2022/06/08 12:27:45;;;;;;;7.90;2.95;;;18.70;99.90;;;;;;5012654;28;20180;-57
2022/06/08 12:30:36;;;;;;;7.07;2.88;;;18.90;99.90;;;;;;5012473;28;20164;-56
2022/06/08 12:33:24;;;;;;;10.52;3.38;;;19.00;99.90;;;;;;5012306;28;20206;-56
2022/06/08 12:35:54;;;;;;;6.15;2.70;;;19.00;99.90;;;;;;5012414;28;20172;-57
2022/06/08 12:38:20;;;;;;;4.38;2.22;;;18.90;99.90;;;;;;5012555;28;20263;-56
2022/06/08 12:41:04;;;;;;;4.50;2.10;;;18.90;99.90;;;;;;5012305;28;20171;-55
2022/06/08 12:43:41;;;;;;;8.15;2.10;;;18.80;99.90;;;;;;5012291;28;20251;-55
2022/06/08 12:46:13;;;;;;;9.05;2.20;;;18.70;99.90;;;;;;5012385;28;20175;-55
2022/06/08 12:48:46;;;;;;;6.00;2.20;;;18.80;99.90;;;;;;5012146;28;20215;-55
2022/06/08 12:51:24;;;;;;;3.55;1.73;;;18.60;99.90;;;;;;5012257;28;20185;-55
2022/06/08 12:53:50;;;;;;;4.18;1.80;;;18.60;99.90;;;;;;5012274;28;20214;-56
2022/06/08 12:56:18;;;;;;;3.13;1.63;;;18.50;99.90;;;;;;5012261;28;20222;-55
2022/06/08 12:58:47;;;;;;;3.80;1.90;;;18.40;99.90;;;;;;5011692;28;20182;-56
2022/06/08 13:01:14;;;;;;;4.43;1.77;;;18.30;99.90;;;;;;4994537;28;20541;-55
2022/06/08 13:03:41;;;;;;;7.20;2.15;;;18.20;99.90;;;;;;5011683;28;20164;-55
2022/06/08 13:06:07;;;;;;;4.78;1.75;;;18.30;99.90;;;;;;5011826;28;20164;-55
2022/06/08 13:08:33;;;;;;;5.70;1.73;;;18.30;99.90;;;;;;5012122;28;20655;-55
2022/06/08 13:11:04;;;;;;;6.22;2.28;;;18.30;99.90;;;;;;5012160;28;20184;-55
2022/06/08 13:13:32;;;;;;;6.20;1.92;;;18.30;99.90;;;;;;5012136;28;20237;-55
2022/06/08 13:16:03;;;;;;;5.53;1.48;;;18.40;99.90;;;;;;5012215;28;20253;-56
2022/06/08 13:18:29;;;;;;;6.00;2.17;;;18.30;99.90;;;;;;5013429;28;20184;-56
2022/06/08 13:20:56;;;;;;;3.67;1.50;;;18.20;99.90;;;;;;5016244;28;20183;-56
2022/06/08 13:23:23;;;;;;;6.45;2.95;;;18.00;99.90;;;;;;5016161;28;20164;-56
2022/06/08 13:25:52;;;;;;;4.65;2.15;;;18.10;99.90;;;;;;5015933;28;20187;-55
2022/06/08 13:28:21;;;;;;;16.52;5.80;;;18.10;99.90;;;;;;5015660;28;20156;-55
2022/06/08 13:30:48;;;;;;;4.85;2.53;;;18.10;99.90;;;;;;5015584;28;20172;-55